Time;durP1;ratioP1;P1;durP2;ratioP2;P2;SDS_P1;SDS_P2;PMS_P1;PMS_P2;Temp;Humidity;BMP_temperature;BMP_pressure;BME280_temperature;BME280_humidity;BME280_pressure;Samples;Min_cycle;Max_cycle;Signal;HPM_P1;HPM_P2
2020/12/01 00:01:52;;;;;;;113.60;39.13;;;-5.40;99.90;;;;;;4260150;27;20115;-43
2020/12/01 00:03:53;;;;;;;154.15;41.15;;;-5.40;99.90;;;;;;4258066;27;20042;-46
2020/12/01 00:05:54;;;;;;;217.32;43.25;;;-5.40;99.90;;;;;;4259717;27;20039;-51
2020/12/01 00:07:55;;;;;;;238.38;48.47;;;-5.40;99.90;;;;;;4258460;27;20542;-45
2020/12/01 00:09:56;;;;;;;232.60;47.67;;;-5.50;99.90;;;;;;4249529;27;20047;-42
2020/12/01 00:11:57;;;;;;;183.88;43.92;;;-5.50;99.90;;;;;;4241556;27;20559;-44
2020/12/01 00:13:58;;;;;;;178.77;44.85;;;-5.60;99.90;;;;;;4242943;27;20111;-43
2020/12/01 00:15:59;;;;;;;218.05;46.47;;;-5.50;99.90;;;;;;4241495;27;20107;-46
2020/12/01 00:18:00;;;;;;;244.85;49.38;;;-5.50;99.90;;;;;;4242696;27;20031;-46
2020/12/01 00:20:04;;;;;;;422.65;62.90;;;-5.50;99.90;;;;;;4254753;27;20522;-47
2020/12/01 00:22:05;;;;;;;302.50;54.47;;;-5.50;99.90;;;;;;4258497;27;20552;-49
2020/12/01 00:24:07;;;;;;;258.15;49.10;;;-5.50;99.90;;;;;;4258502;27;20046;-47
2020/12/01 00:26:08;;;;;;;217.73;45.65;;;-5.60;99.90;;;;;;4259210;27;20121;-40
2020/12/01 00:28:09;;;;;;;241.35;42.88;;;-5.50;99.90;;;;;;4259268;27;20022;-46
2020/12/01 00:30:21;;;;;;;488.52;56.15;;;-5.50;99.90;;;;;;4258606;27;20083;-43
2020/12/01 00:32:22;;;;;;;207.10;40.33;;;-5.50;99.90;;;;;;4259053;27;20103;-41
2020/12/01 00:34:23;;;;;;;234.27;43.15;;;-5.50;99.90;;;;;;4258411;27;20023;-41
2020/12/01 00:36:26;;;;;;;204.57;41.85;;;-5.50;99.90;;;;;;4259088;27;20035;-44
2020/12/01 00:38:27;;;;;;;305.13;46.15;;;-5.50;99.90;;;;;;4257849;27;20099;-42
2020/12/01 00:40:28;;;;;;;180.85;39.17;;;-5.50;99.90;;;;;;4258684;27;20083;-43
2020/12/01 00:42:29;;;;;;;210.13;43.30;;;-5.50;99.90;;;;;;4257588;27;20055;-42
2020/12/01 00:44:31;;;;;;;345.15;51.90;;;-5.50;99.90;;;;;;4259140;27;20055;-40
2020/12/01 00:46:32;;;;;;;223.95;41.78;;;-5.50;99.90;;;;;;4258242;27;20035;-45
2020/12/01 00:48:33;;;;;;;196.20;39.25;;;-5.50;99.90;;;;;;4259406;27;20503;-60
2020/12/01 00:50:34;;;;;;;235.65;41.05;;;-5.50;99.90;;;;;;4258147;27;20019;-42
2020/12/01 00:52:35;;;;;;;168.30;39.08;;;-5.40;99.90;;;;;;4259627;27;20083;-50
2020/12/01 00:54:36;;;;;;;342.73;45.60;;;-5.30;99.90;;;;;;4257553;27;20031;-42
2020/12/01 00:56:37;;;;;;;187.13;38.38;;;-5.30;99.90;;;;;;4259466;27;20038;-46
2020/12/01 00:58:38;;;;;;;140.38;35.20;;;-5.30;99.90;;;;;;4258645;27;20023;-43
2020/12/01 01:00:41;;;;;;;129.40;34.10;;;-5.30;99.90;;;;;;4258010;27;20076;-46
2020/12/01 01:02:42;;;;;;;210.82;37.05;;;-5.20;99.90;;;;;;4257984;27;20047;-43
2020/12/01 01:04:44;;;;;;;170.70;34.65;;;-5.20;99.90;;;;;;4257651;27;20030;-42
2020/12/01 01:06:49;;;;;;;178.18;34.65;;;-5.20;99.90;;;;;;4258943;27;20027;-41
2020/12/01 01:08:50;;;;;;;142.90;34.95;;;-5.20;99.90;;;;;;4256827;27;20043;-45
2020/12/01 01:10:53;;;;;;;135.10;33.38;;;-5.20;99.90;;;;;;4258806;27;20046;-42
2020/12/01 01:12:54;;;;;;;270.65;38.72;;;-5.20;99.90;;;;;;4257004;27;20043;-42
2020/12/01 01:14:55;;;;;;;253.18;39.60;;;-5.20;99.90;;;;;;4257533;27;20051;-50
2020/12/01 01:16:57;;;;;;;200.10;35.15;;;-5.20;99.90;;;;;;4257702;27;20022;-42
2020/12/01 01:18:58;;;;;;;167.68;31.67;;;-5.20;99.90;;;;;;4258429;27;20042;-43
2020/12/01 01:21:00;;;;;;;139.45;30.98;;;-5.20;99.90;;;;;;4257472;27;20113;-40
2020/12/01 01:23:02;;;;;;;195.50;32.70;;;-5.20;99.90;;;;;;4258185;27;20046;-41
2020/12/01 01:25:04;;;;;;;321.42;40.97;;;-5.20;99.90;;;;;;4258189;27;20091;-40
2020/12/01 01:27:05;;;;;;;259.10;37.25;;;-5.20;99.90;;;;;;4258676;27;20432;-38
2020/12/01 01:29:06;;;;;;;198.32;33.78;;;-5.20;99.90;;;;;;4257376;27;20075;-43
2020/12/01 01:31:07;;;;;;;184.43;32.13;;;-5.30;99.90;;;;;;4256593;27;20095;-37
2020/12/01 01:33:10;;;;;;;190.07;31.67;;;-5.20;99.90;;;;;;4257261;27;20042;-42
2020/12/01 01:35:11;;;;;;;222.40;34.55;;;-5.20;99.90;;;;;;4258013;27;20079;-41
2020/12/01 01:37:12;;;;;;;232.82;31.30;;;-5.20;99.90;;;;;;4258220;27;20102;-40
2020/12/01 01:39:13;;;;;;;235.13;34.42;;;-5.20;99.90;;;;;;4255394;27;20026;-42
2020/12/01 01:41:14;;;;;;;339.98;37.97;;;-5.20;99.90;;;;;;4258293;27;20046;-44
2020/12/01 01:43:15;;;;;;;272.17;34.50;;;-5.20;99.90;;;;;;4256716;27;20047;-44
2020/12/01 01:45:32;;;;;;;217.48;30.63;;;-5.20;99.90;;;;;;4258505;27;20034;-46
2020/12/01 01:47:33;;;;;;;220.85;32.28;;;-5.30;99.90;;;;;;4256828;27;20533;-42
2020/12/01 01:49:37;;;;;;;187.07;35.47;;;-5.30;99.90;;;;;;4257452;27;20042;-41
2020/12/01 01:51:41;;;;;;;209.90;32.78;;;-5.30;99.90;;;;;;4256553;27;20027;-40
2020/12/01 01:53:46;;;;;;;226.35;30.52;;;-5.30;99.90;;;;;;4257814;27;20027;-45
2020/12/01 01:55:48;;;;;;;349.98;40.80;;;-5.30;99.90;;;;;;4257271;27;20087;-50
2020/12/01 01:57:55;;;;;;;162.93;29.13;;;-5.30;99.90;;;;;;4258468;27;20027;-48
2020/12/01 01:59:57;;;;;;;350.98;42.10;;;-5.30;99.90;;;;;;4256009;27;20464;-41
2020/12/01 02:02:00;;;;;;;166.85;30.48;;;-5.40;99.90;;;;;;4258149;27;20087;-47
2020/12/01 02:04:07;;;;;;;200.60;29.10;;;-5.40;99.90;;;;;;4256436;27;20096;-44
2020/12/01 02:06:14;;;;;;;164.50;30.38;;;-5.40;99.90;;;;;;4257705;27;20547;-43
2020/12/01 02:08:15;;;;;;;221.02;34.92;;;-5.40;99.90;;;;;;4256998;27;20039;-41
2020/12/01 02:10:17;;;;;;;466.20;42.05;;;-5.40;99.90;;;;;;4258055;27;20026;-39
2020/12/01 02:12:19;;;;;;;466.77;47.85;;;-5.40;99.90;;;;;;4256862;27;20038;-47
2020/12/01 02:14:43;;;;;;;164.20;31.27;;;-5.40;99.90;;;;;;4257559;27;20035;-42
2020/12/01 02:16:51;;;;;;;293.73;35.85;;;-5.50;99.90;;;;;;4256642;27;20042;-40
2020/12/01 02:18:53;;;;;;;216.77;31.38;;;-5.50;99.90;;;;;;4257037;27;20083;-42
2020/12/01 02:20:56;;;;;;;359.15;43.60;;;-5.40;99.90;;;;;;4256917;27;20471;-41
2020/12/01 02:22:57;;;;;;;210.15;34.10;;;-5.40;99.90;;;;;;4256546;27;20039;-43
2020/12/01 02:24:59;;;;;;;172.13;30.58;;;-5.40;99.90;;;;;;4256617;27;20043;-41
2020/12/01 02:27:00;;;;;;;407.20;45.90;;;-5.40;99.90;;;;;;4257177;27;20035;-42
2020/12/01 02:29:12;;;;;;;567.85;51.88;;;-5.40;99.90;;;;;;4257997;27;20536;-45
2020/12/01 02:31:13;;;;;;;156.13;31.35;;;-5.40;99.90;;;;;;4256616;27;20814;-45
2020/12/01 02:33:14;;;;;;;239.70;35.45;;;-5.30;99.90;;;;;;4257547;27;20023;-49
2020/12/01 02:35:15;;;;;;;208.52;34.20;;;-5.30;99.90;;;;;;4256767;27;20031;-43
2020/12/01 02:37:21;;;;;;;205.57;35.95;;;-5.30;99.90;;;;;;4258293;27;20019;-40
2020/12/01 02:39:22;;;;;;;204.45;33.92;;;-5.30;99.90;;;;;;4256498;27;20031;-53
2020/12/01 02:41:24;;;;;;;352.65;46.75;;;-5.30;99.90;;;;;;4257746;27;20027;-50
2020/12/01 02:43:25;;;;;;;286.50;39.63;;;-5.30;99.90;;;;;;4259037;27;20050;-42
2020/12/01 02:45:26;;;;;;;176.27;33.53;;;-5.20;99.90;;;;;;4261272;27;20679;-46
2020/12/01 02:47:28;;;;;;;224.30;35.97;;;-5.20;99.90;;;;;;4259048;27;20103;-42
2020/12/01 02:49:29;;;;;;;211.38;35.22;;;-5.20;99.90;;;;;;4260779;27;20539;-40
2020/12/01 02:51:30;;;;;;;345.15;43.33;;;-5.20;99.90;;;;;;4259485;27;20391;-42
2020/12/01 02:53:31;;;;;;;183.05;34.00;;;-5.10;99.90;;;;;;4260807;27;20039;-43
2020/12/01 02:55:32;;;;;;;157.05;32.47;;;-5.10;99.90;;;;;;4260432;27;20745;-44
2020/12/01 02:57:34;;;;;;;319.17;42.67;;;-5.00;99.90;;;;;;4259952;27;20015;-41
2020/12/01 02:59:35;;;;;;;186.57;32.83;;;-5.00;99.90;;;;;;4260151;27;20077;-46
2020/12/01 03:01:36;;;;;;;182.07;33.50;;;-5.00;99.90;;;;;;4260256;27;20907;-44
2020/12/01 03:03:37;;;;;;;167.93;31.90;;;-4.90;99.90;;;;;;4260277;27;20043;-48
2020/12/01 03:05:38;;;;;;;292.48;37.35;;;-4.90;99.90;;;;;;4259711;27;20026;-42
2020/12/01 03:07:39;;;;;;;268.15;31.10;;;-4.90;99.90;;;;;;4260000;27;20091;-41
2020/12/01 03:09:40;;;;;;;289.40;33.25;;;-4.90;99.90;;;;;;4258833;27;20144;-42
2020/12/01 03:11:42;;;;;;;278.90;34.72;;;-4.90;99.90;;;;;;4259628;27;20080;-43
2020/12/01 03:13:44;;;;;;;379.23;40.00;;;-4.90;99.90;;;;;;4259488;27;20436;-42
2020/12/01 03:15:46;;;;;;;149.30;32.15;;;-4.90;99.90;;;;;;4260359;27;20091;-42
2020/12/01 03:17:47;;;;;;;289.00;40.03;;;-4.80;99.90;;;;;;4259107;27;20047;-42
2020/12/01 03:19:48;;;;;;;296.60;40.08;;;-4.80;99.90;;;;;;4260924;27;20037;-42
2020/12/01 03:21:49;;;;;;;215.70;34.20;;;-4.80;99.90;;;;;;4259090;27;20613;-39
2020/12/01 03:23:50;;;;;;;272.48;40.25;;;-4.70;99.90;;;;;;4260438;27;20042;-43
2020/12/01 03:25:51;;;;;;;422.90;42.78;;;-4.70;99.90;;;;;;4259741;27;20027;-39
2020/12/01 03:27:52;;;;;;;237.88;35.72;;;-4.70;99.90;;;;;;4260143;27;20087;-46
2020/12/01 03:29:54;;;;;;;269.23;31.60;;;-4.70;99.90;;;;;;4260010;27;20034;-40
2020/12/01 03:31:55;;;;;;;272.60;30.23;;;-4.70;99.90;;;;;;4259039;27;20046;-44
2020/12/01 03:33:56;;;;;;;187.00;26.00;;;-4.70;99.90;;;;;;4260311;27;20015;-41
2020/12/01 03:35:57;;;;;;;225.02;26.65;;;-4.70;99.90;;;;;;4259610;27;20535;-41
2020/12/01 03:37:58;;;;;;;284.27;31.17;;;-4.80;99.90;;;;;;4260075;27;20034;-42
2020/12/01 03:39:59;;;;;;;129.60;24.40;;;-4.80;99.90;;;;;;4257959;27;20034;-42
2020/12/01 03:42:01;;;;;;;275.10;29.58;;;-4.80;99.90;;;;;;4260881;27;20027;-40
2020/12/01 03:44:02;;;;;;;190.82;27.27;;;-4.80;99.90;;;;;;4259155;27;20092;-39
2020/12/01 03:46:04;;;;;;;240.88;29.73;;;-4.80;99.90;;;;;;4260161;27;20094;-41
2020/12/01 03:48:06;;;;;;;201.93;25.38;;;-4.80;99.90;;;;;;4258348;27;20498;-41
2020/12/01 03:50:08;;;;;;;313.25;35.42;;;-4.70;99.90;;;;;;4260404;27;20087;-43
2020/12/01 03:52:09;;;;;;;376.48;34.00;;;-4.70;99.90;;;;;;4257934;27;20023;-42
2020/12/01 03:54:10;;;;;;;197.68;27.63;;;-4.70;99.90;;;;;;4258738;27;20027;-43
2020/12/01 03:56:11;;;;;;;154.40;27.83;;;-4.60;99.90;;;;;;4259017;27;20054;-42
2020/12/01 03:58:13;;;;;;;442.83;41.90;;;-4.70;99.90;;;;;;4259198;27;20051;-40
2020/12/01 04:00:17;;;;;;;302.33;31.85;;;-4.70;99.90;;;;;;4258677;27;20031;-40
2020/12/01 04:02:18;;;;;;;233.77;31.05;;;-4.70;99.90;;;;;;4258928;27;20435;-50
2020/12/01 04:04:19;;;;;;;358.42;38.85;;;-4.60;99.90;;;;;;4259612;27;20047;-41
2020/12/01 04:06:20;;;;;;;223.90;30.10;;;-4.60;99.90;;;;;;4258706;27;20027;-42
2020/12/01 04:08:21;;;;;;;236.80;29.02;;;-4.70;99.90;;;;;;4259202;27;20483;-43
2020/12/01 04:10:26;;;;;;;228.95;25.13;;;-4.70;99.90;;;;;;4258234;27;20035;-42
2020/12/01 04:12:28;;;;;;;246.65;29.92;;;-4.70;99.90;;;;;;4259451;27;20015;-42
2020/12/01 04:14:29;;;;;;;317.20;36.13;;;-4.60;99.90;;;;;;4258841;27;20027;-48
2020/12/01 04:16:30;;;;;;;228.32;29.85;;;-4.60;99.90;;;;;;4258722;27;20056;-43
2020/12/01 04:18:31;;;;;;;315.27;35.28;;;-4.50;99.90;;;;;;4258287;27;20031;-47
2020/12/01 04:20:32;;;;;;;250.88;30.92;;;-4.50;99.90;;;;;;4259796;27;20683;-40
2020/12/01 04:22:33;;;;;;;236.70;35.72;;;-4.50;99.90;;;;;;4258624;27;20759;-41
2020/12/01 04:24:34;;;;;;;313.70;35.88;;;-4.50;99.90;;;;;;4259221;27;20047;-48
2020/12/01 04:26:37;;;;;;;252.90;33.15;;;-4.50;99.90;;;;;;4257804;27;20034;-41
2020/12/01 04:28:38;;;;;;;195.90;29.52;;;-4.50;99.90;;;;;;4259060;27;20035;-40
2020/12/01 04:30:39;;;;;;;263.38;33.78;;;-4.50;99.90;;;;;;4257883;27;20060;-42
2020/12/01 04:32:40;;;;;;;300.67;29.77;;;-4.50;99.90;;;;;;4258459;27;20095;-55
2020/12/01 04:34:41;;;;;;;276.60;31.20;;;-4.50;99.90;;;;;;4258314;27;20047;-49
2020/12/01 04:36:42;;;;;;;258.98;33.58;;;-4.60;99.90;;;;;;4257477;27;20131;-41
2020/12/01 04:38:44;;;;;;;321.25;40.25;;;-4.60;99.90;;;;;;4257990;27;20098;-43
2020/12/01 04:40:45;;;;;;;156.27;27.17;;;-4.60;99.90;;;;;;4257532;27;20038;-45
2020/12/01 04:42:53;;;;;;;174.65;27.92;;;-4.60;99.90;;;;;;4259001;27;20039;-46
2020/12/01 04:45:00;;;;;;;174.27;27.17;;;-4.60;99.90;;;;;;4258000;27;20107;-46
2020/12/01 04:47:07;;;;;;;148.43;28.63;;;-4.50;99.90;;;;;;4259260;27;20038;-42
2020/12/01 04:49:24;;;;;;;393.75;37.28;;;-4.50;99.90;;;;;;4257784;27;20083;-41
2020/12/01 04:51:34;;;;;;;206.60;28.48;;;-4.50;99.90;;;;;;4255507;27;20034;-41
2020/12/01 04:54:19;;;;;;;332.13;34.40;;;-4.50;99.90;;;;;;4258212;27;20087;-44
2020/12/01 04:56:48;;;;;;;218.60;28.77;;;-4.50;99.90;;;;;;4258862;27;20461;-50
2020/12/01 04:59:18;;;;;;;158.48;26.55;;;-4.50;99.90;;;;;;4258513;27;20558;-41
2020/12/01 05:01:41;;;;;;;139.93;22.75;;;-4.50;99.90;;;;;;4256743;27;20027;-46
2020/12/01 05:03:45;;;;;;;222.55;29.70;;;-4.40;99.90;;;;;;4258764;27;20042;-42
2020/12/01 05:08:27;;;;;;;136.68;24.85;;;-4.40;99.90;;;;;;4259133;27;20499;-41
2020/12/01 05:10:32;;;;;;;139.40;26.80;;;-4.40;99.90;;;;;;4256667;27;20034;-42
2020/12/01 05:12:38;;;;;;;141.45;27.52;;;-4.50;99.90;;;;;;4258377;27;20030;-43
2020/12/01 05:14:56;;;;;;;132.63;24.65;;;-4.40;99.90;;;;;;4257621;27;20023;-47
2020/12/01 05:17:19;;;;;;;338.42;32.78;;;-4.40;99.90;;;;;;4259183;27;20026;-41
2020/12/01 05:19:32;;;;;;;185.93;26.83;;;-4.50;99.90;;;;;;4255162;27;20050;-40
2020/12/01 05:21:33;;;;;;;123.05;25.83;;;-4.50;99.90;;;;;;4258760;27;20018;-40
2020/12/01 05:23:54;;;;;;;93.38;21.50;;;-4.50;99.90;;;;;;4256478;27;20465;-42
2020/12/01 05:26:04;;;;;;;117.88;21.25;;;-4.50;99.90;;;;;;4258492;27;20039;-47
2020/12/01 05:28:13;;;;;;;86.18;20.05;;;-4.60;99.90;;;;;;4257697;27;20038;-42
2020/12/01 05:30:21;;;;;;;91.60;20.92;;;-4.50;99.90;;;;;;4258466;27;20031;-44
2020/12/01 05:32:27;;;;;;;116.13;23.00;;;-4.50;99.90;;;;;;4256133;27;20103;-42
2020/12/01 05:34:28;;;;;;;144.43;20.67;;;-4.50;99.90;;;;;;4258273;27;20064;-45
2020/12/01 05:36:31;;;;;;;80.13;20.98;;;-4.50;99.90;;;;;;4256875;27;20027;-40
2020/12/01 05:38:33;;;;;;;82.00;20.90;;;-4.50;99.90;;;;;;4257254;27;20034;-41
2020/12/01 05:40:34;;;;;;;62.90;18.58;;;-4.40;99.90;;;;;;4257130;27;20087;-45
2020/12/01 05:42:42;;;;;;;71.68;20.55;;;-4.40;99.90;;;;;;4257923;27;20030;-42
2020/12/01 05:44:54;;;;;;;87.43;20.42;;;-4.30;99.90;;;;;;4256666;27;20035;-42
2020/12/01 05:47:13;;;;;;;87.45;21.48;;;-4.30;99.90;;;;;;4257747;27;20027;-40
2020/12/01 05:49:23;;;;;;;75.30;19.75;;;-4.30;99.90;;;;;;4256162;27;20030;-46
2020/12/01 05:51:43;;;;;;;58.67;17.90;;;-4.20;99.90;;;;;;4257786;27;20107;-54
2020/12/01 05:53:58;;;;;;;71.10;17.13;;;-4.20;99.90;;;;;;4256415;27;20514;-45
2020/12/01 05:56:09;;;;;;;61.55;16.13;;;-4.20;99.90;;;;;;4258111;27;20034;-40
2020/12/01 05:58:12;;;;;;;62.55;17.52;;;-4.20;99.90;;;;;;4256400;27;20031;-40
2020/12/01 06:00:17;;;;;;;56.72;18.17;;;-4.20;99.90;;;;;;4257560;27;20478;-40
2020/12/01 06:02:35;;;;;;;64.63;17.88;;;-4.20;99.90;;;;;;4256710;27;20091;-41
2020/12/01 06:04:36;;;;;;;71.05;18.23;;;-4.20;99.90;;;;;;4257666;27;20103;-41
2020/12/01 06:06:53;;;;;;;61.85;18.00;;;-4.10;99.90;;;;;;4256998;27;20529;-49
2020/12/01 06:08:59;;;;;;;68.63;18.90;;;-4.10;99.90;;;;;;4257388;27;20119;-41
2020/12/01 06:11:30;;;;;;;62.55;17.15;;;-4.10;99.90;;;;;;4255157;27;20030;-41
2020/12/01 06:13:41;;;;;;;65.15;17.77;;;-4.10;99.90;;;;;;4257212;27;20030;-40
2020/12/01 06:16:01;;;;;;;;;;;-4.10;99.90;;;;;;4256025;27;20483;-45
2020/12/01 06:18:27;;;;;;;55.15;15.57;;;-4.10;99.90;;;;;;4257486;27;20757;-40
2020/12/01 06:20:37;;;;;;;50.60;15.25;;;-4.10;99.90;;;;;;4256681;27;20018;-42
2020/12/01 06:23:00;;;;;;;66.38;17.13;;;-4.10;99.90;;;;;;4257491;27;20661;-42
2020/12/01 06:25:07;;;;;;;57.08;18.00;;;-4.00;99.90;;;;;;4256444;27;20043;-42
2020/12/01 06:27:29;;;;;;;80.35;20.65;;;-4.00;99.90;;;;;;4255689;27;20284;-39
2020/12/01 06:29:54;;;;;;;66.82;17.55;;;-4.00;99.90;;;;;;4256582;27;20091;-56
2020/12/01 06:32:38;;;;;;;52.90;17.63;;;-4.00;99.90;;;;;;4256426;27;20083;-48
2020/12/01 06:34:48;;;;;;;50.08;17.05;;;-4.00;99.90;;;;;;4240688;28;20444;-47
2020/12/01 06:37:13;;;;;;;45.83;15.20;;;-4.00;99.90;;;;;;4252141;27;20047;-42
2020/12/01 06:39:27;;;;;;;49.72;16.65;;;-4.00;99.90;;;;;;4257683;27;20019;-41
2020/12/01 06:41:33;;;;;;;46.95;15.75;;;-4.00;99.90;;;;;;4256570;27;20102;-47
2020/12/01 06:43:41;;;;;;;45.67;15.82;;;-3.90;99.90;;;;;;4256697;27;20482;-44
2020/12/01 06:45:52;;;;;;;53.80;17.48;;;-3.90;99.90;;;;;;4255533;27;20072;-40
2020/12/01 06:48:00;;;;;;;51.25;16.48;;;-3.90;99.90;;;;;;4256555;27;20103;-42
2020/12/01 06:50:05;;;;;;;53.80;17.60;;;-4.00;99.90;;;;;;4256384;27;20086;-48
2020/12/01 06:52:14;;;;;;;50.17;18.50;;;-3.90;99.90;;;;;;4257667;27;20031;-48
2020/12/01 06:54:16;;;;;;;40.22;15.38;;;-4.00;99.90;;;;;;4255820;27;20115;-46
2020/12/01 06:56:18;;;;;;;35.53;13.77;;;-4.00;99.90;;;;;;4257192;27;20173;-51
2020/12/01 06:58:25;;;;;;;43.85;16.40;;;-4.00;99.90;;;;;;4256458;27;20095;-42
2020/12/01 07:00:27;;;;;;;43.97;14.40;;;-4.00;99.90;;;;;;4257539;27;20090;-42
2020/12/01 07:02:31;;;;;;;39.03;13.55;;;-4.00;99.90;;;;;;4256018;27;20063;-40
2020/12/01 07:04:33;;;;;;;49.03;16.55;;;-4.00;99.90;;;;;;4257211;27;20047;-45
2020/12/01 07:06:37;;;;;;;41.38;15.27;;;-4.10;99.90;;;;;;4255437;27;20050;-40
2020/12/01 07:08:38;;;;;;;44.15;15.65;;;-4.10;99.90;;;;;;4242581;27;20042;-59
2020/12/01 07:10:40;;;;;;;48.78;15.82;;;-4.10;99.90;;;;;;4256222;27;20095;-39
2020/12/01 07:12:52;;;;;;;42.58;15.38;;;-4.00;99.90;;;;;;4256646;27;20095;-40
2020/12/01 07:15:02;;;;;;;43.80;15.00;;;-4.00;99.90;;;;;;4256380;27;20031;-41
2020/12/01 07:17:16;;;;;;;39.28;14.35;;;-4.00;99.90;;;;;;4256541;27;20034;-43
2020/12/01 07:19:41;;;;;;;43.60;15.38;;;-4.00;99.90;;;;;;4256667;27;20015;-41
2020/12/01 07:22:07;;;;;;;43.40;16.90;;;-4.00;99.90;;;;;;4257365;27;20083;-45
2020/12/01 07:24:17;;;;;;;41.15;16.13;;;-4.00;99.90;;;;;;4255296;27;20064;-40
2020/12/01 07:26:39;;;;;;;33.07;11.90;;;-4.00;99.90;;;;;;4257598;27;20091;-45
2020/12/01 07:29:10;;;;;;;44.97;16.50;;;-4.00;99.90;;;;;;4255695;27;20259;-43
2020/12/01 07:31:20;;;;;;;38.10;15.88;;;-4.00;99.90;;;;;;4215784;27;20034;-39
2020/12/01 07:33:27;;;;;;;35.25;12.77;;;-3.90;99.90;;;;;;4256400;27;20535;-50
2020/12/01 07:35:35;;;;;;;39.75;15.35;;;-3.90;99.90;;;;;;4259672;27;20542;-48
2020/12/01 07:37:55;;;;;;;35.75;14.07;;;-3.90;99.90;;;;;;4258993;27;21049;-42
2020/12/01 07:40:00;;;;;;;35.50;13.48;;;-4.00;99.90;;;;;;4259894;27;20039;-48
2020/12/01 07:42:03;;;;;;;39.80;13.43;;;-4.00;99.90;;;;;;4258563;27;20107;-39
2020/12/01 07:44:14;;;;;;;40.75;15.50;;;-4.00;99.90;;;;;;4258614;27;20035;-49
2020/12/01 07:46:15;;;;;;;;;;;-3.90;99.90;;;;;;4258811;27;20042;-49
2020/12/01 07:48:20;;;;;;;;;;;-3.90;99.90;;;;;;4260373;27;19907;-42
2020/12/01 07:50:21;;;;;;;35.47;13.27;;;-3.80;99.90;;;;;;4258841;27;19907;-43
2020/12/01 07:52:31;;;;;;;38.20;14.13;;;-3.90;99.90;;;;;;4258506;27;20039;-40
2020/12/01 07:54:34;;;;;;;41.53;14.38;;;-3.90;99.90;;;;;;4257108;27;20455;-41
2020/12/01 07:56:39;;;;;;;33.90;13.20;;;-3.90;99.90;;;;;;4259081;27;20027;-40
2020/12/01 07:58:40;;;;;;;36.17;12.73;;;-3.80;99.90;;;;;;4255850;27;20066;-41
2020/12/01 08:00:41;;;;;;;43.85;14.85;;;-3.80;99.90;;;;;;4258815;27;20034;-44
2020/12/01 08:02:42;;;;;;;39.40;14.48;;;-3.80;99.90;;;;;;4258176;27;20482;-46
2020/12/01 08:04:43;;;;;;;34.83;14.02;;;-3.80;99.90;;;;;;4258527;27;20035;-42
2020/12/01 08:06:45;;;;;;;41.30;16.08;;;-3.80;99.90;;;;;;4257989;27;20034;-40
2020/12/01 08:08:46;;;;;;;37.88;14.20;;;-3.70;99.90;;;;;;4257086;27;20436;-46
2020/12/01 08:10:50;;;;;;;42.10;14.70;;;-3.80;99.90;;;;;;4258324;27;20087;-50
2020/12/01 08:12:54;;;;;;;41.55;15.25;;;-3.70;99.90;;;;;;4254757;27;20042;-43
2020/12/01 08:14:56;;;;;;;45.50;15.52;;;-3.70;99.90;;;;;;4257767;27;20038;-41
2020/12/01 08:17:05;;;;;;;40.78;15.52;;;-3.70;99.90;;;;;;4257789;27;20019;-40
2020/12/01 08:19:11;;;;;;;46.75;16.60;;;-3.70;99.90;;;;;;4258225;27;20038;-45
2020/12/01 08:21:17;;;;;;;42.58;16.80;;;-3.80;99.90;;;;;;4258063;27;20023;-57
2020/12/01 08:23:22;;;;;;;41.97;15.27;;;-3.80;99.90;;;;;;4258476;27;20030;-50
2020/12/01 08:25:27;;;;;;;47.22;16.88;;;-3.80;99.90;;;;;;4256774;27;20034;-47
2020/12/01 08:27:54;;;;;;;45.03;16.92;;;-3.70;99.90;;;;;;4258468;27;20030;-58
2020/12/01 08:29:58;;;;;;;53.50;17.50;;;-3.70;99.90;;;;;;4257226;27;20063;-49
2020/12/01 08:32:21;;;;;;;53.80;17.45;;;-3.70;99.90;;;;;;4258117;27;20452;-45
2020/12/01 08:34:29;;;;;;;48.10;16.67;;;-3.70;99.90;;;;;;4256226;27;20037;-45
2020/12/01 08:37:01;;;;;;;50.42;19.05;;;-3.70;99.90;;;;;;4257612;27;20018;-61
2020/12/01 08:39:29;;;;;;;49.85;17.95;;;-3.70;99.90;;;;;;4257359;27;20087;-50
2020/12/01 08:41:42;;;;;;;46.50;16.40;;;-3.60;99.90;;;;;;4254131;27;20038;-60
2020/12/01 08:44:00;;;;;;;48.28;18.25;;;-3.70;99.90;;;;;;4258342;27;20035;-60
2020/12/01 08:46:10;;;;;;;43.65;16.63;;;-3.60;99.90;;;;;;4257070;27;20038;-52
2020/12/01 08:48:26;;;;;;;45.78;15.80;;;-3.70;99.90;;;;;;4258718;27;20042;-50
2020/12/01 08:50:29;;;;;;;47.03;17.00;;;-3.70;99.90;;;;;;4256960;27;20459;-56
2020/12/01 08:52:39;;;;;;;50.60;17.60;;;-3.70;99.90;;;;;;4258479;27;20080;-51
2020/12/01 08:54:57;;;;;;;41.45;17.27;;;-3.80;99.90;;;;;;4257346;27;20787;-47
2020/12/01 08:57:05;;;;;;;44.22;14.27;;;-3.80;99.90;;;;;;4257666;27;20031;-64
2020/12/01 08:59:11;;;;;;;50.65;17.65;;;-3.80;99.90;;;;;;4257041;27;20042;-61
2020/12/01 09:01:14;;;;;;;53.78;19.52;;;-3.80;99.90;;;;;;4258468;27;20043;-67
2020/12/01 09:03:16;;;;;;;45.03;15.10;;;-3.80;99.90;;;;;;4256795;27;20035;-54
2020/12/01 09:05:28;;;;;;;45.97;16.73;;;-3.70;99.90;;;;;;4257496;27;20046;-55
2020/12/01 09:07:35;;;;;;;46.28;16.42;;;-3.70;99.90;;;;;;4257345;27;20039;-64
2020/12/01 09:09:36;;;;;;;44.58;14.70;;;-3.70;99.90;;;;;;4256625;27;20495;-50
2020/12/01 09:14:00;;;;;;;42.47;15.60;;;-3.60;99.90;;;;;;4257882;27;20083;-52
2020/12/01 09:16:36;;;;;;;39.10;14.45;;;-3.70;99.90;;;;;;4257259;27;20123;-57
2020/12/01 09:18:57;;;;;;;41.08;15.32;;;-3.70;99.90;;;;;;4257768;27;20042;-46
2020/12/01 09:23:32;;;;;;;36.65;13.88;;;-3.70;99.90;;;;;;4258044;27;20098;-57
2020/12/01 09:25:35;;;;;;;47.08;16.40;;;-3.60;99.90;;;;;;4257049;27;20034;-56
2020/12/01 09:27:37;;;;;;;38.33;13.38;;;-3.60;99.90;;;;;;4258625;27;20027;-61
2020/12/01 09:29:43;;;;;;;44.97;15.90;;;-3.60;99.90;;;;;;4257203;27;20824;-66
2020/12/01 09:31:44;;;;;;;51.70;17.75;;;-3.70;99.90;;;;;;4258465;27;20115;-67
2020/12/01 09:33:46;;;;;;;43.33;17.45;;;-3.60;99.90;;;;;;4256829;27;20428;-50
2020/12/01 09:35:48;;;;;;;51.17;18.75;;;-3.60;99.90;;;;;;4256609;27;20094;-58
2020/12/01 09:37:49;;;;;;;50.28;17.80;;;-3.50;99.90;;;;;;4256932;27;20034;-52
2020/12/01 09:39:50;;;;;;;54.40;18.33;;;-3.60;99.90;;;;;;4257719;27;20039;-66
2020/12/01 09:42:01;;;;;;;45.03;15.88;;;-3.60;99.90;;;;;;4257289;27;20123;-50
2020/12/01 09:44:19;;;;;;;47.93;18.00;;;-3.60;99.90;;;;;;4256913;27;20038;-62
2020/12/01 09:46:29;;;;;;;43.25;17.15;;;-3.60;99.90;;;;;;4256069;27;20608;-62
2020/12/01 09:48:35;;;;;;;43.10;15.20;;;-3.60;99.90;;;;;;4256772;27;20034;-59
2020/12/01 09:50:38;;;;;;;46.83;16.38;;;-3.60;99.90;;;;;;4256497;27;20039;-51
2020/12/01 09:53:30;;;;;;;47.30;17.50;;;-3.60;99.90;;;;;;4256146;27;20091;-60
2020/12/01 09:55:19;;;;;;;42.95;15.85;;;-3.60;99.90;;;;;;4250936;27;20368;-51
2020/12/01 09:57:35;;;;;;;47.83;18.48;;;-3.60;99.90;;;;;;4257129;27;20046;-56
2020/12/01 10:11:24;;;;;;;53.95;18.05;;;-3.40;99.90;;;;;;4258155;27;20034;-65
2020/12/01 10:20:12;;;;;;;52.20;21.15;;;-3.30;99.90;;;;;;4257509;27;20769;-67
2020/12/01 10:35:31;;;;;;;48.30;17.38;;;-3.30;99.90;;;;;;4255736;27;20091;-69
2020/12/01 10:37:32;;;;;;;49.40;18.13;;;-3.30;99.90;;;;;;4256624;27;20035;-65
2020/12/01 10:39:33;;;;;;;48.92;17.60;;;-3.20;99.90;;;;;;4255379;27;20027;-62
2020/12/01 10:41:39;;;;;;;50.58;18.63;;;-3.10;99.90;;;;;;4257387;27;20035;-63
2020/12/01 10:43:40;;;;;;;53.05;18.77;;;-3.10;99.90;;;;;;4254834;27;20095;-52
2020/12/01 10:45:41;;;;;;;48.15;20.10;;;-3.10;99.90;;;;;;4255919;27;20972;-63
2020/12/01 10:47:42;;;;;;;49.15;17.27;;;-3.10;99.90;;;;;;4254226;27;20103;-57
2020/12/01 10:49:43;;;;;;;49.33;17.55;;;-3.20;99.90;;;;;;4257307;27;20035;-61
2020/12/01 10:51:50;;;;;;;48.55;18.85;;;-3.30;99.90;;;;;;4255809;27;20066;-54
2020/12/01 10:53:52;;;;;;;51.42;18.00;;;-3.30;99.90;;;;;;4257011;27;20056;-51
2020/12/01 10:55:53;;;;;;;46.65;17.48;;;-3.20;99.90;;;;;;4255190;27;21131;-61
2020/12/01 10:57:55;;;;;;;43.63;15.20;;;-3.10;99.90;;;;;;4255731;27;20047;-63
2020/12/01 10:59:56;;;;;;;49.25;16.85;;;-3.00;99.90;;;;;;4255473;27;20096;-52
2020/12/01 11:01:58;;;;;;;44.35;17.30;;;-3.00;99.90;;;;;;4256646;27;20479;-63
2020/12/01 11:03:59;;;;;;;49.30;18.48;;;-3.00;99.90;;;;;;4256927;27;20091;-53
2020/12/01 11:06:00;;;;;;;44.38;16.90;;;-3.00;99.90;;;;;;4259329;27;20047;-52
2020/12/01 11:08:01;;;;;;;40.25;16.05;;;-3.00;99.90;;;;;;4259890;27;20077;-50
2020/12/01 11:10:03;;;;;;;44.85;17.60;;;-3.00;99.90;;;;;;4259392;27;20031;-55
2020/12/01 11:12:04;;;;;;;41.93;16.40;;;-3.00;99.90;;;;;;4260396;27;20026;-60
2020/12/01 11:14:07;;;;;;;51.47;18.97;;;-3.00;99.90;;;;;;4259166;27;20255;-62
2020/12/01 11:16:09;;;;;;;45.78;16.73;;;-3.00;99.90;;;;;;4260065;27;20263;-56